Time;durP1;ratioP1;P1;durP2;ratioP2;P2;SDS_P1;SDS_P2;PMS_P1;PMS_P2;Temp;Humidity;BMP_temperature;BMP_pressure;BME280_temperature;BME280_humidity;BME280_pressure;Samples;Min_cycle;Max_cycle;Signal;HPM_P1;HPM_P2
2022/01/23 00:07:31;;;;;;;52.78;27.08;;;3.30;99.90;;;;;;5030573;28;20040;-83
2022/01/23 00:10:03;;;;;;;44.65;20.92;;;3.30;99.90;;;;;;4920440;29;20091;-84
2022/01/23 00:13:05;;;;;;;;;;;;;;;;;;;;;
2022/01/23 00:18:20;;;;;;;49.83;24.27;;;3.20;99.90;;;;;;4994640;28;20048;-84
2022/01/23 00:41:02;;;;;;;71.00;34.28;;;2.50;99.90;;;;;;4782547;29;20522;-84
2022/01/23 01:07:47;;;;;;;;;;;2.00;99.90;;;;;;4793946;29;20108;-84
2022/01/23 01:44:09;;;;;;;26.45;13.75;;;1.70;99.90;;;;;;4886976;29;19917;-80
2022/01/23 01:54:02;;;;;;;20.55;12.75;;;1.60;99.90;;;;;;4908582;29;20047;-81
2022/01/23 01:57:31;;;;;;;22.13;12.15;;;1.60;99.90;;;;;;4923634;28;20023;-81
2022/01/23 03:39:40;;;;;;;15.40;7.75;;;1.70;99.90;;;;;;4883852;29;20511;-80
2022/01/23 04:03:54;;;;;;;;;;;;;;;;;;;;;
2022/01/23 05:13:01;;;;;;;;;;;;;;;;;;;;;
2022/01/23 05:25:19;;;;;;;13.18;6.85;;;2.10;99.90;;;;;;4892398;29;20106;-81
2022/01/23 05:28:07;;;;;;;13.27;6.53;;;2.10;99.90;;;;;;4894279;29;20104;-82
2022/01/23 05:31:13;;;;;;;9.38;6.38;;;2.10;99.90;;;;;;4929314;29;20118;-81
2022/01/23 05:37:53;;;;;;;;;;;;;;;;;;;;;
2022/01/23 05:44:44;;;;;;;12.05;6.90;;;2.10;99.90;;;;;;4863883;29;20037;-82
2022/01/23 05:54:39;;;;;;;12.40;7.13;;;2.20;99.90;;;;;;4801017;29;20047;-81
2022/01/23 05:57:33;;;;;;;11.13;6.78;;;2.20;99.90;;;;;;4812079;29;20083;-82
2022/01/23 06:00:49;;;;;;;9.85;6.90;;;2.20;99.90;;;;;;4840466;29;20527;-82
2022/01/23 06:03:40;;;;;;;;;;;;;;;;;;;;;
2022/01/23 06:13:20;;;;;;;16.17;7.97;;;2.00;99.90;;;;;;4860624;29;20576;-82
2022/01/23 06:15:47;;;;;;;14.85;6.68;;;2.10;99.90;;;;;;4873594;29;20033;-82
2022/01/23 06:22:27;;;;;;;15.65;7.18;;;2.10;99.90;;;;;;4950289;28;20114;-82
2022/01/23 06:28:48;;;;;;;11.85;6.65;;;2.10;99.90;;;;;;4895855;29;20079;-82
2022/01/23 06:31:47;;;;;;;14.27;7.88;;;2.10;99.90;;;;;;4999807;28;20700;-83
2022/01/23 06:40:49;;;;;;;14.70;7.60;;;2.20;99.90;;;;;;4915253;29;20042;-82
2022/01/23 06:43:21;;;;;;;15.75;8.13;;;2.30;99.90;;;;;;4911066;29;20035;-83
2022/01/23 06:46:10;;;;;;;14.63;8.35;;;2.30;99.90;;;;;;4989462;28;20440;-82
2022/01/23 06:57:03;;;;;;;14.68;8.30;;;2.40;99.90;;;;;;4953737;28;20039;-82
2022/01/23 06:59:58;;;;;;;13.75;8.10;;;2.40;99.90;;;;;;4905287;29;20060;-82
2022/01/23 07:02:43;;;;;;;13.82;8.10;;;2.50;99.90;;;;;;4908037;29;20043;-82
2022/01/23 07:05:12;;;;;;;10.65;7.60;;;2.50;99.90;;;;;;4924415;29;20028;-82
2022/01/23 07:08:28;;;;;;;13.20;8.23;;;2.50;99.90;;;;;;4955381;28;20466;-82
2022/01/23 07:11:46;;;;;;;24.27;12.43;;;2.60;99.90;;;;;;5007753;28;20503;-81
2022/01/23 07:17:53;;;;;;;42.83;25.77;;;2.70;99.90;;;;;;4998106;28;20088;-82
2022/01/23 07:20:22;;;;;;;28.52;17.67;;;2.70;99.90;;;;;;4994452;28;20032;-82
2022/01/23 07:29:53;;;;;;;15.30;8.68;;;3.00;99.90;;;;;;5012015;28;20125;-81
2022/01/23 07:32:22;;;;;;;11.35;8.07;;;3.10;99.90;;;;;;5010791;28;20029;-82
2022/01/23 07:34:48;;;;;;;22.80;8.55;;;3.20;99.90;;;;;;4994725;28;20034;-83
2022/01/23 07:37:27;;;;;;;14.77;7.93;;;3.20;99.90;;;;;;5011770;28;20018;-83
2022/01/23 07:40:37;;;;;;;12.35;8.40;;;3.30;99.90;;;;;;4995231;28;20120;-83
2022/01/23 07:43:05;;;;;;;14.95;8.30;;;3.40;99.90;;;;;;5008923;28;20496;-82
2022/01/23 07:45:31;;;;;;;12.60;8.32;;;3.50;99.90;;;;;;5011233;28;20484;-82
2022/01/23 07:47:56;;;;;;;13.85;8.73;;;3.60;99.90;;;;;;5011352;28;20037;-82
2022/01/23 07:50:38;;;;;;;16.08;10.13;;;3.70;99.90;;;;;;4994929;28;20030;-83
2022/01/23 07:53:18;;;;;;;13.93;7.40;;;3.80;99.90;;;;;;4993812;28;20045;-84
2022/01/23 07:55:44;;;;;;;17.63;8.68;;;3.90;99.90;;;;;;4999304;28;20467;-82
2022/01/23 07:58:14;;;;;;;12.40;8.85;;;4.10;99.90;;;;;;5011344;28;20105;-85
2022/01/23 08:00:41;;;;;;;16.58;9.43;;;4.20;99.90;;;;;;4992146;28;20026;-86
2022/01/23 08:03:07;;;;;;;15.65;8.23;;;4.40;99.90;;;;;;4993613;28;20037;-82
2022/01/23 08:05:33;;;;;;;13.45;8.30;;;4.60;99.90;;;;;;5012979;28;20022;-82
2022/01/23 08:07:59;;;;;;;13.88;8.00;;;4.80;99.90;;;;;;5011991;28;20053;-87
2022/01/23 08:10:25;;;;;;;12.88;8.27;;;5.00;99.90;;;;;;4991167;28;20069;-80
2022/01/23 08:12:51;;;;;;;16.08;8.00;;;5.20;99.90;;;;;;5009807;28;20041;-84
2022/01/23 08:15:17;;;;;;;16.33;8.73;;;5.40;99.90;;;;;;5011505;28;20030;-84
2022/01/23 08:18:02;;;;;;;18.85;8.52;;;5.60;99.90;;;;;;5012047;28;20037;-84
2022/01/23 08:20:33;;;;;;;13.57;8.15;;;5.90;99.90;;;;;;4994058;28;20393;-83
2022/01/23 08:23:01;;;;;;;14.45;8.68;;;6.30;99.90;;;;;;5011871;28;20032;-87
2022/01/23 08:25:28;;;;;;;14.98;8.10;;;6.60;99.90;;;;;;5026749;28;20111;-84
2022/01/23 08:27:55;;;;;;;16.88;8.15;;;6.80;99.90;;;;;;5031321;28;20025;-83
2022/01/23 08:30:29;;;;;;;17.58;8.60;;;7.10;99.90;;;;;;5010908;28;20041;-81
2022/01/23 08:32:56;;;;;;;16.90;9.13;;;7.30;99.90;;;;;;5028374;28;20461;-82
2022/01/23 08:35:31;;;;;;;21.55;8.27;;;7.40;99.90;;;;;;5031568;28;20041;-82
2022/01/23 08:37:57;;;;;;;11.40;7.70;;;7.60;99.90;;;;;;5031549;28;20055;-83
2022/01/23 08:40:45;;;;;;;14.27;8.48;;;7.70;99.90;;;;;;5031466;28;20036;-82
2022/01/23 08:43:12;;;;;;;13.07;8.52;;;7.70;99.90;;;;;;5030570;28;20503;-82
2022/01/23 08:45:41;;;;;;;15.48;9.23;;;7.70;99.90;;;;;;5009577;28;20468;-83
2022/01/23 08:48:07;;;;;;;20.27;10.27;;;7.60;99.90;;;;;;5010424;28;20037;-83
2022/01/23 08:50:34;;;;;;;16.15;9.43;;;7.50;99.90;;;;;;5030900;28;20490;-82
2022/01/23 08:53:02;;;;;;;24.83;12.20;;;7.40;99.90;;;;;;5029075;28;20120;-81
2022/01/23 08:55:28;;;;;;;24.27;12.13;;;7.30;99.90;;;;;;5031427;28;20030;-82
2022/01/23 08:57:58;;;;;;;16.73;10.05;;;7.20;99.90;;;;;;5030981;28;20443;-83
2022/01/23 09:00:24;;;;;;;24.77;10.35;;;7.10;99.90;;;;;;5030322;28;20104;-86
2022/01/23 09:02:49;;;;;;;16.92;9.60;;;7.00;99.90;;;;;;5008835;28;20128;-81
2022/01/23 09:05:18;;;;;;;21.45;9.32;;;7.00;99.90;;;;;;5027496;28;20443;-81
2022/01/23 09:07:43;;;;;;;32.05;16.40;;;7.00;99.90;;;;;;5030507;28;20028;-81
2022/01/23 09:10:10;;;;;;;47.55;28.58;;;7.00;99.90;;;;;;5031151;28;20029;-82
2022/01/23 09:12:55;;;;;;;18.92;11.20;;;7.20;99.90;;;;;;5029605;28;20404;-83
2022/01/23 09:15:21;;;;;;;19.60;10.95;;;7.30;99.90;;;;;;5013684;28;20064;-82
2022/01/23 09:17:47;;;;;;;18.42;9.80;;;7.50;99.90;;;;;;5010967;28;20025;-87
2022/01/23 09:20:16;;;;;;;17.05;9.73;;;7.80;99.90;;;;;;5017378;28;20078;-85
2022/01/23 09:22:42;;;;;;;44.53;19.02;;;7.90;99.90;;;;;;5028992;28;20037;-86
2022/01/23 09:25:07;;;;;;;35.78;18.70;;;8.10;99.90;;;;;;5027948;28;20839;-83
2022/01/23 09:27:33;;;;;;;41.78;19.67;;;8.20;99.90;;;;;;5027528;28;20022;-82
2022/01/23 09:30:06;;;;;;;19.63;12.13;;;8.40;99.90;;;;;;5026989;28;20029;-83
2022/01/23 09:32:32;;;;;;;22.83;12.57;;;8.60;99.90;;;;;;5026864;28;20049;-85
2022/01/23 09:34:58;;;;;;;17.58;10.40;;;8.80;99.90;;;;;;5028663;28;20391;-84
2022/01/23 09:37:23;;;;;;;28.92;14.88;;;9.00;99.90;;;;;;5021507;28;20026;-85
2022/01/23 09:39:50;;;;;;;25.05;12.77;;;9.10;99.90;;;;;;5023394;28;20400;-83
2022/01/23 09:42:26;;;;;;;23.33;14.15;;;9.20;99.90;;;;;;5027763;28;20021;-83
2022/01/23 09:45:03;;;;;;;14.30;8.93;;;9.30;99.90;;;;;;5028234;28;20118;-85
2022/01/23 09:47:39;;;;;;;30.88;17.05;;;9.30;99.90;;;;;;5028878;28;20039;-83
2022/01/23 09:50:15;;;;;;;32.95;17.38;;;9.30;99.90;;;;;;5020245;28;20472;-95
2022/01/23 09:52:41;;;;;;;22.08;11.55;;;9.30;99.90;;;;;;4993914;28;20480;-86
2022/01/23 09:55:11;;;;;;;29.85;14.52;;;9.20;99.90;;;;;;4993346;28;20029;-85
2022/01/23 09:57:41;;;;;;;31.48;15.35;;;9.20;99.90;;;;;;5030974;28;20107;-84
2022/01/23 10:00:11;;;;;;;36.95;25.08;;;9.20;99.90;;;;;;5033964;28;20531;-85
2022/01/23 10:02:37;;;;;;;21.80;15.25;;;9.30;99.90;;;;;;5029678;28;20029;-85
2022/01/23 10:05:04;;;;;;;24.52;14.82;;;9.50;99.90;;;;;;5027903;28;20044;-83
2022/01/23 10:07:31;;;;;;;20.17;14.23;;;9.70;99.90;;;;;;5033229;28;20036;-84
2022/01/23 10:10:09;;;;;;;20.17;13.32;;;9.90;99.90;;;;;;5011598;28;20484;-85
2022/01/23 10:12:38;;;;;;;24.48;13.32;;;10.00;99.90;;;;;;5030639;28;20040;-85
2022/01/23 10:15:04;;;;;;;20.38;11.35;;;10.00;99.90;;;;;;5016207;28;20036;-86
2022/01/23 10:17:30;;;;;;;20.52;11.30;;;10.10;99.90;;;;;;5018718;28;20025;-87
2022/01/23 10:19:57;;;;;;;26.73;12.23;;;10.10;99.90;;;;;;5033001;28;20203;-84
2022/01/23 10:22:25;;;;;;;19.85;10.73;;;10.20;99.90;;;;;;5032104;28;20021;-82
2022/01/23 10:24:50;;;;;;;23.65;12.70;;;10.10;99.90;;;;;;5014712;28;20060;-83
2022/01/23 10:27:17;;;;;;;21.63;11.20;;;10.00;99.90;;;;;;5032926;28;20025;-83
2022/01/23 10:29:46;;;;;;;21.15;10.05;;;10.00;99.90;;;;;;5030699;28;20030;-84
2022/01/23 10:32:24;;;;;;;24.83;11.02;;;10.00;99.90;;;;;;5028456;28;20018;-83
2022/01/23 10:35:02;;;;;;;27.95;12.30;;;9.90;99.90;;;;;;5008398;28;20497;-84
2022/01/23 10:37:37;;;;;;;27.02;11.75;;;9.80;99.90;;;;;;5012322;28;20108;-84
2022/01/23 10:40:29;;;;;;;28.88;11.65;;;9.60;99.90;;;;;;5028325;28;20029;-84
2022/01/23 10:48:25;;;;;;;21.40;12.05;;;9.60;99.90;;;;;;5031761;28;20179;-84
2022/01/23 10:50:52;;;;;;;33.10;12.02;;;9.50;99.90;;;;;;5032191;28;20021;-84
2022/01/23 10:53:18;;;;;;;23.83;11.23;;;9.50;99.90;;;;;;5032584;28;20037;-84
2022/01/23 10:55:45;;;;;;;21.10;11.50;;;9.60;99.90;;;;;;5015873;28;20030;-84
2022/01/23 10:58:21;;;;;;;26.80;11.80;;;9.60;99.90;;;;;;5014858;28;20025;-83
2022/01/23 11:00:47;;;;;;;19.70;12.18;;;9.80;99.90;;;;;;5033644;28;20020;-84
2022/01/23 11:03:17;;;;;;;22.02;11.10;;;9.70;99.90;;;;;;5032678;28;20044;-83
2022/01/23 11:05:48;;;;;;;18.27;10.55;;;9.70;99.90;;;;;;5032968;28;20107;-84
2022/01/23 11:08:25;;;;;;;18.25;10.50;;;9.80;99.90;;;;;;5032632;28;20025;-83
2022/01/23 11:11:06;;;;;;;17.95;10.73;;;9.90;99.90;;;;;;5027233;28;20022;-84
2022/01/23 11:19:20;;;;;;;19.67;9.60;;;9.80;99.90;;;;;;5032219;28;20040;-84
2022/01/23 11:21:47;;;;;;;15.40;10.98;;;9.90;99.90;;;;;;5031784;28;20037;-84
2022/01/23 11:24:13;;;;;;;24.10;10.25;;;10.00;99.90;;;;;;5032119;28;20506;-84
2022/01/23 11:26:40;;;;;;;19.10;10.38;;;10.20;99.90;;;;;;5015161;28;20029;-84
2022/01/23 11:29:22;;;;;;;11.70;6.18;;;10.20;99.90;;;;;;5032228;28;20072;-84
2022/01/23 11:31:51;;;;;;;10.27;5.93;;;10.20;99.90;;;;;;5026139;28;20048;-84
2022/01/23 11:34:21;;;;;;;13.85;5.38;;;10.10;99.90;;;;;;5032282;28;20777;-84
2022/01/23 11:36:56;;;;;;;11.90;6.80;;;10.10;99.90;;;;;;5014809;28;20430;-84
2022/01/23 11:39:48;;;;;;;12.68;7.13;;;10.10;99.90;;;;;;5033504;28;20033;-89
2022/01/23 11:56:36;;;;;;;15.93;8.68;;;10.10;99.90;;;;;;5028774;28;20580;-81
2022/01/23 11:59:16;;;;;;;15.98;8.52;;;10.00;99.90;;;;;;5004918;28;20431;-87
2022/01/23 12:01:45;;;;;;;16.70;8.70;;;10.00;99.90;;;;;;5033287;28;20021;-86
2022/01/23 12:04:22;;;;;;;17.10;9.30;;;10.00;99.90;;;;;;5014358;28;20037;-83
2022/01/23 12:07:14;;;;;;;15.10;8.02;;;10.00;99.90;;;;;;5003453;28;20121;-81
2022/01/23 12:10:37;;;;;;;10.20;5.38;;;10.20;99.90;;;;;;5032280;28;20032;-86
2022/01/23 12:16:34;;;;;;;10.18;4.80;;;10.30;99.90;;;;;;5017524;28;20172;-83
2022/01/23 12:19:20;;;;;;;7.28;4.22;;;10.40;99.90;;;;;;5008607;28;20108;-80
2022/01/23 12:21:48;;;;;;;8.25;3.88;;;10.30;99.90;;;;;;5025641;28;20492;-84
2022/01/23 12:24:17;;;;;;;11.02;5.15;;;10.10;99.90;;;;;;5013120;28;20392;-85
2022/01/23 12:26:44;;;;;;;11.75;5.35;;;10.10;99.90;;;;;;5018735;28;20488;-85
2022/01/23 12:29:12;;;;;;;8.50;4.72;;;10.10;99.90;;;;;;5012796;28;20045;-85
2022/01/23 12:31:38;;;;;;;9.32;4.82;;;10.10;99.90;;;;;;5031591;28;20022;-84
2022/01/23 12:34:08;;;;;;;12.38;5.35;;;10.10;99.90;;;;;;5031009;28;20045;-85
2022/01/23 12:36:37;;;;;;;18.95;5.43;;;10.70;99.90;;;;;;5031587;28;20021;-84
2022/01/23 12:39:13;;;;;;;9.32;4.75;;;11.70;99.90;;;;;;5031462;28;20221;-84
2022/01/23 12:41:40;;;;;;;14.10;6.47;;;13.40;99.90;;;;;;5031358;28;20023;-85
2022/01/23 12:44:29;;;;;;;10.10;5.05;;;15.20;99.90;;;;;;5031214;28;20036;-85
2022/01/23 12:47:03;;;;;;;10.15;5.63;;;16.60;99.90;;;;;;5024490;28;20064;-86
2022/01/23 12:49:31;;;;;;;11.68;6.43;;;17.60;99.90;;;;;;5003111;28;20058;-86
2022/01/23 12:52:26;;;;;;;8.73;4.35;;;17.70;99.90;;;;;;5031680;28;20575;-85
2022/01/23 12:55:00;;;;;;;8.27;4.20;;;17.70;97.00;;;;;;5012720;28;20124;-84
2022/01/23 12:57:35;;;;;;;10.02;4.65;;;17.40;97.90;;;;;;5040645;28;20022;-85
2022/01/23 13:00:04;;;;;;;9.07;5.22;;;17.80;96.20;;;;;;5031190;28;20059;-84
2022/01/23 13:02:40;;;;;;;16.73;6.35;;;17.50;94.90;;;;;;5031013;28;20061;-84
2022/01/23 13:05:06;;;;;;;11.65;6.13;;;17.10;95.70;;;;;;5010382;28;20033;-84
2022/01/23 13:10:48;;;;;;;16.60;7.38;;;17.20;95.80;;;;;;5029009;28;20018;-85
2022/01/23 13:16:13;;;;;;;14.90;6.97;;;18.40;91.70;;;;;;5024946;28;20032;-85
2022/01/23 13:19:18;;;;;;;11.07;6.22;;;18.70;90.50;;;;;;5028949;28;20021;-84
2022/01/23 13:27:46;;;;;;;12.60;6.78;;;17.20;92.20;;;;;;4970338;28;20023;-86
2022/01/23 13:30:22;;;;;;;11.95;6.00;;;18.20;91.10;;;;;;4969090;28;20031;-84
2022/01/23 13:32:51;;;;;;;11.00;6.88;;;18.60;89.60;;;;;;4993857;28;20041;-85
2022/01/23 13:35:18;;;;;;;13.02;6.32;;;18.30;87.40;;;;;;5010807;28;20033;-85
2022/01/23 13:37:47;;;;;;;11.13;6.40;;;18.20;90.30;;;;;;5010496;28;20033;-86
2022/01/23 13:40:23;;;;;;;11.07;5.68;;;18.20;89.90;;;;;;5028341;28;20068;-84
2022/01/23 14:02:29;;;;;;;9.15;4.68;;;20.10;77.50;;;;;;5034533;28;20530;-84
2022/01/23 14:05:08;;;;;;;8.50;4.85;;;20.50;77.10;;;;;;5034339;28;20030;-85
2022/01/23 14:07:35;;;;;;;9.35;4.97;;;20.10;76.40;;;;;;5016173;28;20480;-86
2022/01/23 14:10:19;;;;;;;9.70;4.90;;;20.50;76.70;;;;;;5016215;28;20029;-85
2022/01/23 14:12:47;;;;;;;7.10;4.50;;;20.20;78.10;;;;;;5029260;28;20507;-85
2022/01/23 14:15:16;;;;;;;7.20;4.00;;;19.90;77.60;;;;;;5016059;28;20036;-84
2022/01/23 14:17:54;;;;;;;9.80;4.82;;;19.60;78.80;;;;;;5010850;28;20091;-85
2022/01/23 14:20:20;;;;;;;8.25;5.10;;;19.10;79.90;;;;;;5034190;28;20064;-85
2022/01/23 14:22:47;;;;;;;9.20;5.15;;;18.60;80.80;;;;;;5016029;28;20058;-86
2022/01/23 14:25:17;;;;;;;13.40;5.00;;;18.60;82.80;;;;;;5016157;28;20099;-87
2022/01/23 14:28:02;;;;;;;9.25;5.65;;;18.30;83.90;;;;;;5013707;28;20099;-85
2022/01/23 14:30:29;;;;;;;6.95;5.10;;;17.60;86.60;;;;;;5033473;28;20112;-85
2022/01/23 14:33:03;;;;;;;9.82;5.63;;;16.30;91.10;;;;;;5015782;28;20040;-87
2022/01/23 14:35:31;;;;;;;9.90;5.40;;;14.80;95.10;;;;;;5016329;28;20693;-85
2022/01/23 14:38:18;;;;;;;9.10;5.18;;;14.00;98.60;;;;;;5016002;28;20044;-85
2022/01/23 14:41:09;;;;;;;9.43;5.13;;;13.50;99.90;;;;;;5016563;28;20484;-86
2022/01/23 14:43:40;;;;;;;10.32;6.70;;;13.10;99.90;;;;;;5029510;28;20483;-85
2022/01/23 14:46:12;;;;;;;12.35;5.82;;;12.80;99.90;;;;;;5004310;28;20029;-85
2022/01/23 14:48:44;;;;;;;13.20;5.47;;;12.40;99.90;;;;;;5031263;28;20118;-85
2022/01/23 14:51:13;;;;;;;15.15;5.25;;;12.40;99.90;;;;;;5030280;28;20018;-86
2022/01/23 14:53:39;;;;;;;7.55;5.35;;;12.70;99.90;;;;;;5015346;28;20132;-86
2022/01/23 14:56:09;;;;;;;12.30;5.20;;;12.40;99.90;;;;;;5015321;28;20018;-85
2022/01/23 14:58:36;;;;;;;9.00;5.05;;;12.00;99.90;;;;;;5029955;28;20025;-85
2022/01/23 15:01:03;;;;;;;10.73;5.15;;;11.30;99.90;;;;;;5014727;28;20021;-85
2022/01/23 15:03:30;;;;;;;7.05;4.70;;;10.70;99.90;;;;;;5014437;28;20503;-86
2022/01/23 15:05:58;;;;;;;12.23;5.95;;;10.30;99.90;;;;;;5033012;28;20499;-87
2022/01/23 15:08:25;;;;;;;12.68;5.97;;;10.10;99.90;;;;;;5023377;28;20554;-86
2022/01/23 15:10:58;;;;;;;11.88;7.22;;;10.00;99.90;;;;;;5015825;28;20393;-86
2022/01/23 15:13:25;;;;;;;13.07;7.70;;;10.00;99.90;;;;;;5013992;28;20136;-87
2022/01/23 15:15:52;;;;;;;21.63;9.68;;;9.80;99.90;;;;;;5013591;28;20022;-86
2022/01/23 15:18:19;;;;;;;18.77;8.88;;;10.00;99.90;;;;;;5011707;28;20030;-87
2022/01/23 15:20:45;;;;;;;18.80;9.10;;;10.20;99.90;;;;;;5013480;28;20029;-87
2022/01/23 15:23:13;;;;;;;21.65;10.30;;;10.10;99.90;;;;;;5013479;28;20498;-86
2022/01/23 15:25:39;;;;;;;22.27;13.07;;;9.80;99.90;;;;;;5031716;28;20108;-84
2022/01/23 15:28:06;;;;;;;40.15;23.70;;;9.70;99.90;;;;;;5031055;28;20025;-83
2022/01/23 15:30:32;;;;;;;30.58;15.30;;;9.70;99.90;;;;;;5014638;28;20037;-84
2022/01/23 15:33:00;;;;;;;38.60;24.45;;;9.70;99.90;;;;;;5014350;28;20044;-84
2022/01/23 15:35:27;;;;;;;22.35;14.40;;;9.70;99.90;;;;;;5014737;28;20044;-85
2022/01/23 15:37:53;;;;;;;22.63;13.15;;;9.70;99.90;;;;;;5032173;28;20030;-84
2022/01/23 15:40:21;;;;;;;20.98;11.68;;;9.70;99.90;;;;;;5014446;28;20044;-84
2022/01/23 15:42:50;;;;;;;19.08;11.10;;;9.60;99.90;;;;;;5032275;28;20029;-85
2022/01/23 15:45:17;;;;;;;22.10;10.60;;;9.60;99.90;;;;;;5032397;28;20522;-84
2022/01/23 15:47:43;;;;;;;22.02;10.45;;;9.60;99.90;;;;;;5031841;28;20493;-83
2022/01/23 15:50:10;;;;;;;25.00;18.70;;;9.50;99.90;;;;;;5014546;28;20034;-85
2022/01/23 15:52:37;;;;;;;24.98;13.73;;;9.50;99.90;;;;;;5032113;28;20069;-86
2022/01/23 15:55:04;;;;;;;22.27;12.05;;;9.30;99.90;;;;;;5032477;28;20037;-87
2022/01/23 15:57:30;;;;;;;19.15;13.23;;;9.30;99.90;;;;;;5031845;28;20044;-85
2022/01/23 15:59:56;;;;;;;19.70;11.73;;;9.20;99.90;;;;;;5032091;28;20022;-85
2022/01/23 16:02:22;;;;;;;31.08;12.45;;;9.10;99.90;;;;;;5013941;28;20022;-84
2022/01/23 16:04:48;;;;;;;19.83;10.73;;;9.00;99.90;;;;;;5031943;28;20428;-83
2022/01/23 16:07:16;;;;;;;15.93;11.07;;;8.80;99.90;;;;;;5031405;28;20037;-85
2022/01/23 16:09:48;;;;;;;20.65;11.68;;;8.70;99.90;;;;;;5013068;28;20036;-84
2022/01/23 16:12:15;;;;;;;20.13;10.88;;;8.60;99.90;;;;;;5014045;28;20033;-84
2022/01/23 16:14:42;;;;;;;22.85;12.98;;;8.40;99.90;;;;;;5022906;28;20128;-84
2022/01/23 16:17:08;;;;;;;24.83;12.60;;;8.30;99.90;;;;;;5031936;28;20028;-84
2022/01/23 16:19:34;;;;;;;23.00;12.70;;;8.20;99.90;;;;;;5031704;28;20078;-87
2022/01/23 16:22:00;;;;;;;23.77;13.00;;;8.00;99.90;;;;;;5014700;28;20034;-86
2022/01/23 16:24:27;;;;;;;20.80;12.73;;;7.90;99.90;;;;;;5031626;28;20057;-86
2022/01/23 16:26:53;;;;;;;19.27;12.13;;;7.70;99.90;;;;;;5031913;28;20060;-85
2022/01/23 16:29:21;;;;;;;21.27;12.27;;;7.60;99.90;;;;;;5030991;28;20030;-83
2022/01/23 16:31:49;;;;;;;22.60;12.52;;;7.60;99.90;;;;;;5031609;28;20083;-85
2022/01/23 16:34:15;;;;;;;31.75;21.65;;;7.50;99.90;;;;;;5030652;28;20037;-84
2022/01/23 16:36:40;;;;;;;27.48;18.25;;;7.50;99.90;;;;;;5031875;28;20481;-87
2022/01/23 16:39:09;;;;;;;26.70;14.45;;;7.40;99.90;;;;;;5031347;28;20083;-87
2022/01/23 16:41:37;;;;;;;24.80;13.80;;;7.40;99.90;;;;;;5014388;28;20025;-84
2022/01/23 16:44:04;;;;;;;25.05;15.15;;;7.30;99.90;;;;;;5031124;28;20501;-88
2022/01/23 16:46:30;;;;;;;26.80;15.38;;;7.20;99.90;;;;;;5031778;28;20529;-85
2022/01/23 16:48:56;;;;;;;22.77;15.15;;;7.00;99.90;;;;;;5013424;28;20036;-86
2022/01/23 16:51:22;;;;;;;23.52;16.27;;;7.00;99.90;;;;;;5031292;28;20029;-85
2022/01/23 16:53:51;;;;;;;24.55;15.50;;;6.90;99.90;;;;;;5031152;28;20496;-91
2022/01/23 16:56:17;;;;;;;22.88;14.20;;;6.80;99.90;;;;;;5013890;28;20105;-85
2022/01/23 16:58:44;;;;;;;22.60;15.13;;;6.70;99.90;;;;;;5012413;28;20128;-85
2022/01/23 17:01:10;;;;;;;38.90;23.08;;;6.70;99.90;;;;;;5031151;28;20026;-85
2022/01/23 17:03:36;;;;;;;29.45;16.83;;;6.60;99.90;;;;;;5004894;28;20049;-85
2022/01/23 17:06:01;;;;;;;24.98;16.23;;;6.60;99.90;;;;;;5013246;28;20028;-85
2022/01/23 17:08:27;;;;;;;24.85;18.17;;;6.50;99.90;;;;;;5029587;28;20044;-85
2022/01/23 17:10:53;;;;;;;33.88;19.05;;;6.50;99.90;;;;;;5031504;28;20025;-85
2022/01/23 17:13:20;;;;;;;29.88;16.73;;;6.40;99.90;;;;;;5012137;28;20128;-85
2022/01/23 17:15:46;;;;;;;22.17;13.98;;;6.40;99.90;;;;;;5013382;28;20126;-85
2022/01/23 17:18:12;;;;;;;18.40;13.65;;;6.30;99.90;;;;;;5030132;28;20480;-84
2022/01/23 17:20:39;;;;;;;22.08;14.68;;;6.30;99.90;;;;;;5012966;28;20357;-85
2022/01/23 17:23:05;;;;;;;18.75;12.98;;;6.30;99.90;;;;;;5010047;28;20029;-85
2022/01/23 17:25:31;;;;;;;19.77;13.25;;;6.20;99.90;;;;;;5030526;28;20049;-85
2022/01/23 17:27:57;;;;;;;25.25;14.43;;;6.20;99.90;;;;;;5027597;28;20067;-85
2022/01/23 17:30:23;;;;;;;23.15;13.82;;;6.10;99.90;;;;;;5012902;28;20137;-85
2022/01/23 17:32:49;;;;;;;18.75;12.13;;;6.00;99.90;;;;;;5030435;28;20136;-85
2022/01/23 17:35:15;;;;;;;18.50;11.50;;;5.90;99.90;;;;;;5030010;28;20108;-85
2022/01/23 17:37:42;;;;;;;23.40;11.80;;;5.80;99.90;;;;;;5030697;28;20033;-85
2022/01/23 17:40:09;;;;;;;22.23;12.40;;;5.70;99.90;;;;;;5030928;28;20017;-85
2022/01/23 17:42:35;;;;;;;15.40;11.70;;;5.70;99.90;;;;;;5030643;28;20029;-85
2022/01/23 17:45:01;;;;;;;20.90;12.77;;;5.60;99.90;;;;;;5024702;28;20033;-85
2022/01/23 17:50:04;;;;;;;23.23;13.85;;;5.50;99.90;;;;;;5029777;28;20076;-85
2022/01/23 17:52:30;;;;;;;21.75;13.07;;;5.50;99.90;;;;;;5029023;28;20037;-85
2022/01/23 17:54:58;;;;;;;21.63;13.98;;;5.40;99.90;;;;;;5030145;28;20034;-85
2022/01/23 17:57:24;;;;;;;23.85;13.75;;;5.40;99.90;;;;;;5030587;28;20026;-84
2022/01/23 17:59:49;;;;;;;23.58;14.98;;;5.30;99.90;;;;;;5011745;28;20099;-84
2022/01/23 18:02:16;;;;;;;25.98;15.43;;;5.30;99.90;;;;;;5030207;28;20120;-85
2022/01/23 18:04:43;;;;;;;23.58;14.82;;;5.30;99.90;;;;;;5027051;28;20041;-85
2022/01/23 18:07:12;;;;;;;25.08;15.07;;;5.30;99.90;;;;;;5012945;28;20025;-85
2022/01/23 18:09:38;;;;;;;24.17;13.50;;;5.20;99.90;;;;;;5029864;28;20033;-85
2022/01/23 18:12:04;;;;;;;30.40;15.40;;;5.20;99.90;;;;;;5025870;28;20030;-84
2022/01/23 18:14:30;;;;;;;30.27;16.42;;;5.10;99.90;;;;;;5029210;28;20049;-84
2022/01/23 18:16:56;;;;;;;91.45;36.85;;;5.20;99.90;;;;;;5030711;28;20422;-84
2022/01/23 18:19:22;;;;;;;20.10;13.55;;;5.20;99.90;;;;;;5029656;28;20026;-84
2022/01/23 18:21:48;;;;;;;23.35;12.70;;;5.20;99.90;;;;;;5030438;28;20025;-84
2022/01/23 18:24:14;;;;;;;17.70;11.20;;;5.20;99.90;;;;;;5029871;28;20053;-84
2022/01/23 18:26:42;;;;;;;24.23;11.63;;;5.20;99.90;;;;;;5030544;28;20551;-84
2022/01/23 18:29:11;;;;;;;17.60;11.20;;;5.30;99.90;;;;;;5029882;28;20484;-84
2022/01/23 18:31:37;;;;;;;22.50;11.70;;;5.30;99.90;;;;;;5032986;28;20025;-84
2022/01/23 18:34:03;;;;;;;46.05;22.48;;;5.40;99.90;;;;;;5033506;28;20091;-84
2022/01/23 18:36:34;;;;;;;28.02;15.35;;;5.40;99.90;;;;;;5033689;28;20025;-84
2022/01/23 18:39:00;;;;;;;22.95;14.43;;;5.30;99.90;;;;;;5011108;28;20036;-85
2022/01/23 18:41:29;;;;;;;22.40;14.48;;;5.50;99.90;;;;;;5033961;28;20052;-85
2022/01/23 18:43:55;;;;;;;35.17;17.33;;;5.60;99.90;;;;;;5033627;28;20084;-85
2022/01/23 18:46:22;;;;;;;28.58;16.85;;;5.60;99.90;;;;;;5014842;28;20428;-84
2022/01/23 18:48:48;;;;;;;28.20;16.90;;;5.50;99.90;;;;;;5010936;28;20443;-85
2022/01/23 18:51:14;;;;;;;27.30;15.57;;;5.40;99.90;;;;;;5034504;28;20088;-84
2022/01/23 18:53:44;;;;;;;32.30;13.80;;;5.20;99.90;;;;;;5047655;28;20036;-85
2022/01/23 18:56:18;;;;;;;23.83;14.43;;;5.10;99.90;;;;;;5024214;28;20029;-84
2022/01/23 18:58:52;;;;;;;24.25;15.15;;;4.90;99.90;;;;;;5033113;28;20025;-84
2022/01/23 19:01:20;;;;;;;22.85;15.48;;;4.80;99.90;;;;;;5047058;28;20028;-84
2022/01/23 19:04:07;;;;;;;26.40;17.33;;;4.80;99.90;;;;;;5028225;28;20075;-84
2022/01/23 19:06:37;;;;;;;25.35;17.95;;;4.80;99.90;;;;;;5033136;28;20377;-84
2022/01/23 19:09:17;;;;;;;31.60;19.83;;;4.80;99.90;;;;;;5036793;28;20021;-84
2022/01/23 19:11:47;;;;;;;23.27;15.95;;;4.80;99.90;;;;;;5027550;28;20029;-84
2022/01/23 19:14:13;;;;;;;23.10;16.30;;;4.70;99.90;;;;;;5033302;28;20045;-84
2022/01/23 19:16:39;;;;;;;23.58;15.50;;;4.70;99.90;;;;;;5033227;28;20108;-85
2022/01/23 19:19:08;;;;;;;28.10;17.38;;;4.60;99.90;;;;;;5012931;28;20190;-85
2022/01/23 19:21:33;;;;;;;24.88;15.18;;;4.60;99.90;;;;;;5007277;28;20526;-85
2022/01/23 19:24:01;;;;;;;20.88;14.38;;;4.60;99.90;;;;;;5011905;28;20050;-89
2022/01/23 19:26:27;;;;;;;22.05;13.60;;;4.70;99.90;;;;;;4999839;28;20036;-85
2022/01/23 19:28:53;;;;;;;21.42;12.70;;;4.70;99.90;;;;;;5032373;28;20422;-84
2022/01/23 19:31:21;;;;;;;21.98;14.25;;;4.70;99.90;;;;;;5031853;28;20551;-84
2022/01/23 19:33:47;;;;;;;25.83;14.55;;;4.70;99.90;;;;;;5012856;28;20049;-84
2022/01/23 19:36:13;;;;;;;21.60;13.40;;;4.70;99.90;;;;;;5032879;28;20076;-84
2022/01/23 19:38:39;;;;;;;23.40;13.55;;;4.70;99.90;;;;;;5013903;28;20033;-84
2022/01/23 19:46:27;;;;;;;18.92;12.07;;;4.90;99.90;;;;;;5025964;28;20045;-84
2022/01/23 19:49:00;;;;;;;17.88;11.63;;;5.00;99.90;;;;;;5014160;28;20084;-84
2022/01/23 19:51:26;;;;;;;19.27;12.77;;;5.00;99.90;;;;;;5022116;28;20025;-84
2022/01/23 19:53:52;;;;;;;20.85;13.23;;;5.00;99.90;;;;;;5028471;28;20046;-86
2022/01/23 19:56:20;;;;;;;18.70;12.05;;;5.00;99.90;;;;;;5011350;28;20057;-85
2022/01/23 19:58:47;;;;;;;22.80;12.05;;;5.10;99.90;;;;;;5013276;28;20511;-86
2022/01/23 20:01:12;;;;;;;23.13;13.02;;;5.20;99.90;;;;;;5030957;28;20534;-86
2022/01/23 20:03:38;;;;;;;20.58;12.23;;;5.30;99.90;;;;;;5013914;28;20029;-83